createdAt,value
2022-07-26T00:03:39.925Z,26.3
2022-07-26T00:13:41.926Z,26.3
2022-07-26T00:23:44.444Z,26.3
2022-07-26T00:33:46.544Z,26.3
2022-07-26T00:43:48.805Z,26.2
2022-07-26T00:53:51.156Z,26.2
2022-07-26T01:03:53.580Z,26.2
2022-07-26T01:13:55.615Z,26.2
2022-07-26T01:23:58.123Z,26.2
2022-07-26T01:34:00.710Z,26.2
2022-07-26T01:44:02.543Z,26.2
2022-07-26T01:54:05.185Z,26.2
2022-07-26T02:34:14.404Z,26.2
2022-07-26T03:24:25.161Z,26.1
2022-07-26T03:34:27.783Z,26.1
2022-07-26T03:54:32.412Z,26.1
2022-07-26T04:04:34.855Z,26.1
2022-07-26T04:14:37.500Z,26.1
2022-07-26T04:24:39.333Z,26.1
2022-07-26T04:34:41.877Z,26.1
2022-07-26T04:44:43.982Z,26.1
2022-07-26T04:54:45.700Z,26.1
2022-07-26T05:04:47.693Z,26.1
2022-07-26T05:14:49.455Z,26.1
2022-07-26T05:24:51.316Z,26.1
2022-07-26T05:34:53.065Z,26.1
2022-07-26T05:44:55.880Z,26.1
2022-07-26T05:54:57.630Z,26.1
2022-07-26T06:04:59.653Z,26.1
2022-07-26T06:15:02.293Z,26.1
2022-07-26T06:25:03.979Z,26.1
2022-07-26T06:35:05.807Z,26.1
2022-07-26T06:45:08.181Z,26.1
2022-07-26T06:55:12.644Z,26.2
2022-07-26T07:05:12.477Z,26.2
2022-07-26T07:15:14.318Z,26.2
2022-07-26T07:25:16.752Z,26.3
2022-07-26T07:35:19.303Z,26.4
2022-07-26T07:45:21.160Z,26.4
2022-07-26T07:55:40.813Z,26.5
2022-07-26T08:05:26.083Z,26.5
2022-07-26T08:15:28.481Z,26.6
2022-07-26T08:25:30.964Z,26.6
2022-07-26T08:35:32.819Z,26.7
2022-07-26T08:45:35.470Z,26.7
2022-07-26T08:55:57.131Z,26.8
2022-07-26T09:05:40.491Z,26.8
2022-07-26T09:15:42.505Z,26.8
2022-07-26T09:25:44.348Z,26.8
2022-07-26T09:35:50.309Z,26.8
2022-07-26T09:45:48.531Z,26.8
2022-07-26T09:55:50.843Z,26.7
2022-07-26T10:05:53.146Z,26.5
2022-07-26T10:15:55.599Z,26.5
2022-07-26T10:25:58.135Z,26.5
2022-07-26T10:36:00.306Z,26.4
2022-07-26T10:46:02.613Z,26.4
2022-07-26T10:56:04.475Z,26.4
2022-07-26T10:56:32.709Z,26.4
2022-07-26T11:06:13.853Z,26.4
2022-07-26T11:16:16.475Z,26.4
2022-07-26T11:26:18.993Z,26.4
2022-07-26T11:36:21.469Z,26.4
2022-07-26T11:56:25.407Z,26.4
2022-07-26T12:06:27.235Z,26.4
2022-07-26T12:16:29.338Z,26.4
2022-07-26T12:26:31.816Z,26.4
2022-07-26T12:36:33.544Z,26.5
2022-07-26T12:46:35.787Z,26.5
2022-07-26T12:56:37.737Z,26.5
2022-07-26T13:06:39.713Z,26.5
2022-07-26T13:16:42.431Z,26.5
2022-07-26T13:26:44.326Z,26.5
2022-07-26T13:36:46.343Z,26.5
2022-07-26T13:46:48.499Z,26.5
2022-07-26T13:56:50.656Z,26.5
2022-07-26T14:06:53.063Z,26.5
2022-07-26T14:16:54.969Z,26.5
2022-07-26T14:26:59.125Z,26.5
2022-07-26T14:36:58.521Z,26.5
2022-07-26T14:47:00.538Z,26.5
2022-07-26T14:57:02.498Z,26.5
2022-07-26T15:07:04.760Z,26.5
2022-07-26T15:17:06.755Z,26.4
2022-07-26T15:27:08.578Z,26.4
2022-07-26T15:37:10.926Z,26.4
2022-07-26T15:47:15.428Z,26.4
2022-07-26T15:57:14.722Z,26.4
2022-07-26T16:07:17.180Z,26.4
2022-07-26T16:17:19.579Z,26.4
2022-07-26T16:27:21.752Z,26.4
2022-07-26T16:37:24.233Z,26.3
2022-07-26T16:47:26.211Z,26.3
2022-07-26T16:57:28.013Z,26.3
2022-07-26T17:07:29.730Z,26.3
2022-07-26T17:17:32.037Z,26.3
2022-07-26T17:27:34.566Z,26.3
2022-07-26T17:37:36.952Z,26.3
2022-07-26T17:47:38.921Z,26.2
2022-07-26T17:57:41.543Z,26.2
2022-07-26T18:07:44.166Z,26.2
2022-07-26T18:17:46.503Z,26.2
2022-07-26T18:27:48.293Z,26.2
2022-07-26T18:37:50.642Z,26.2
2022-07-26T18:47:52.929Z,26.2
2022-07-26T18:57:54.728Z,26.2
2022-07-26T19:07:56.384Z,26.2
2022-07-26T19:17:58.077Z,26.1
2022-07-26T19:28:00.583Z,26.1
2022-07-26T19:38:02.372Z,26.1
2022-07-26T19:48:04.093Z,26.1
2022-07-26T19:58:05.817Z,26.1
2022-07-26T20:08:07.736Z,26.1
2022-07-26T20:18:09.535Z,26
2022-07-26T20:28:11.962Z,26
2022-07-26T20:38:14.141Z,26
2022-07-26T20:48:16.358Z,26
2022-07-26T20:58:18.965Z,26
2022-07-26T21:08:20.857Z,25.9
2022-07-26T21:18:22.733Z,25.9
2022-07-26T21:38:26.865Z,25.9
2022-07-26T21:48:29.048Z,25.9
2022-07-26T21:58:35.975Z,25.8
2022-07-26T22:08:33.637Z,25.8
2022-07-26T22:18:35.463Z,25.8
2022-07-26T22:28:37.612Z,25.8
2022-07-26T22:48:44.485Z,25.7
2022-07-26T22:58:44.124Z,25.7
2022-07-26T23:08:47.767Z,25.7
2022-07-26T23:18:48.479Z,25.7
2022-07-26T23:28:50.885Z,25.7
2022-07-26T23:38:52.942Z,25.6
2022-07-26T23:48:55.252Z,25.6
2022-07-26T23:58:57.509Z,25.6
